Terminal Aerodrome Forecast
Issued by NWS Twin Cities, MN

Home | Current Version | Previous Version | Graphics & Text | Print | Product List | Glossary On
Versions: 1 2 3 4 5 6 7 8 9 10 11 12 13 14 15 16 17 18 19 20 21 22 23 24 25 26 27 28 29
541
FTUS43 KMPX 232105 AAB
TAFMSP
TAF AMD
KMSP 232105Z 2321/2424 17014G22KT P6SM FEW040 BKN200
     FM240100 16011KT P6SM VCSH SCT040 BKN120
      TEMPO 2403/2405 4SM TSRA BKN035CB
     FM240500 15007KT P6SM -SHRA SCT015 OVC030
     FM240800 23005KT 6SM BR SCT007 OVC015
     FM241500 27007KT P6SM SCT015 OVC025
     FM241800 29010KT P6SM FEW025=

USA.gov is the U.S. government's official web portal to all federal, state and local government web resources and services.